Time;durP1;ratioP1;P1;durP2;ratioP2;P2;SDS_P1;SDS_P2;PMS_P1;PMS_P2;Temp;Humidity;BMP_temperature;BMP_pressure;BME280_temperature;BME280_humidity;BME280_pressure;Samples;Min_cycle;Max_cycle;Signal;HPM_P1;HPM_P2
2022/11/27 00:00:42;;;;;;;1.17;1.08;;;4.70;99.90;;;;;;5028214;28;20037;-85
2022/11/27 00:03:08;;;;;;;0.28;0.28;;;4.90;99.90;;;;;;5028714;28;20029;-85
2022/11/27 00:05:34;;;;;;;0.55;0.55;;;4.90;99.90;;;;;;5047486;28;20079;-85
2022/11/27 00:07:59;;;;;;;0.10;0.10;;;5.00;99.90;;;;;;5028489;28;20104;-85
2022/11/27 00:10:25;;;;;;;0.20;0.20;;;5.00;99.90;;;;;;5040021;28;20032;-85
2022/11/27 00:12:50;;;;;;;0.25;0.25;;;5.10;99.90;;;;;;5056432;28;20030;-85
2022/11/27 00:15:17;;;;;;;0.15;0.15;;;5.10;99.90;;;;;;5046425;28;20068;-85
2022/11/27 00:17:43;;;;;;;1.90;0.65;;;5.30;99.90;;;;;;5051026;28;20429;-85
2022/11/27 00:20:09;;;;;;;0.47;0.47;;;5.30;99.90;;;;;;5050156;28;20090;-85
2022/11/27 00:22:34;;;;;;;0.28;0.28;;;5.30;99.90;;;;;;5031647;28;20028;-85
2022/11/27 00:25:00;;;;;;;0.75;0.63;;;5.30;99.90;;;;;;5031723;28;20405;-85
2022/11/27 00:27:26;;;;;;;0.20;0.20;;;5.40;99.90;;;;;;5031905;28;20508;-83
2022/11/27 00:29:51;;;;;;;0.20;0.20;;;5.50;99.90;;;;;;5049518;28;20141;-84
2022/11/27 00:32:17;;;;;;;0.30;0.30;;;5.50;99.90;;;;;;5049410;28;20033;-84
2022/11/27 00:34:42;;;;;;;0.17;0.17;;;5.50;99.90;;;;;;5049132;28;20028;-82
2022/11/27 00:37:08;;;;;;;0.15;0.15;;;5.30;99.90;;;;;;5030979;28;20029;-82
2022/11/27 00:39:34;;;;;;;1.25;0.43;;;5.30;99.90;;;;;;5050048;28;20055;-82
2022/11/27 00:41:59;;;;;;;2.78;1.05;;;5.40;99.90;;;;;;5061406;28;20703;-82
2022/11/27 00:44:25;;;;;;;0.10;0.10;;;5.40;99.90;;;;;;5032356;28;20442;-83
2022/11/27 00:46:51;;;;;;;0.20;0.20;;;5.40;99.90;;;;;;5031502;28;20757;-84
2022/11/27 00:49:16;;;;;;;0.73;0.73;;;5.10;99.90;;;;;;5049873;28;20405;-88
2022/11/27 00:51:42;;;;;;;0.10;0.10;;;5.10;99.90;;;;;;5062792;28;20505;-87
2022/11/27 00:54:08;;;;;;;0.20;0.20;;;5.10;99.90;;;;;;5034685;28;20041;-85
2022/11/27 00:56:36;;;;;;;0.10;0.10;;;5.00;99.90;;;;;;5056337;28;20130;-86
2022/11/27 00:59:04;;;;;;;0.20;0.20;;;4.90;99.90;;;;;;5049876;28;20475;-84
2022/11/27 01:01:33;;;;;;;0.10;0.10;;;5.10;99.90;;;;;;5049493;28;20033;-83
2022/11/27 01:04:00;;;;;;;0.10;0.10;;;5.10;99.90;;;;;;5030858;28;20036;-83
2022/11/27 01:06:26;;;;;;;;;;;5.20;99.90;;;;;;5031728;28;20036;-83
2022/11/27 01:08:52;;;;;;;0.30;0.30;;;5.10;99.90;;;;;;5031152;28;19952;-82
2022/11/27 01:11:21;;;;;;;0.10;0.10;;;5.10;99.90;;;;;;5048795;28;20110;-83
2022/11/27 01:13:47;;;;;;;0.17;0.17;;;5.00;99.90;;;;;;5031509;28;20068;-82
2022/11/27 01:16:22;;;;;;;0.27;0.27;;;4.90;99.90;;;;;;5030515;28;20515;-84
2022/11/27 01:18:49;;;;;;;0.55;0.32;;;4.90;99.90;;;;;;5048298;28;20096;-85
2022/11/27 01:21:15;;;;;;;;;;;5.10;99.90;;;;;;5049461;28;20040;-84
2022/11/27 01:23:41;;;;;;;0.50;0.50;;;4.90;99.90;;;;;;5023523;28;19912;-85
2022/11/27 01:26:09;;;;;;;0.35;0.35;;;4.80;99.90;;;;;;5061934;28;20029;-84
2022/11/27 01:28:35;;;;;;;0.20;0.20;;;4.80;99.90;;;;;;5024877;28;20092;-83
2022/11/27 01:31:17;;;;;;;0.80;0.55;;;4.70;99.90;;;;;;5034694;28;20392;-85
2022/11/27 01:33:43;;;;;;;0.20;0.20;;;4.70;99.90;;;;;;5029956;28;20516;-84
2022/11/27 01:36:11;;;;;;;0.15;0.15;;;4.60;99.90;;;;;;5030308;28;20021;-85
2022/11/27 01:38:37;;;;;;;0.57;0.25;;;4.50;99.90;;;;;;5039162;28;20040;-85
2022/11/27 01:41:04;;;;;;;0.25;0.25;;;4.50;99.90;;;;;;5031028;28;20364;-85
2022/11/27 01:43:42;;;;;;;0.38;0.38;;;4.70;99.90;;;;;;5058625;28;20205;-85
2022/11/27 01:46:39;;;;;;;0.10;0.10;;;4.60;99.90;;;;;;5048820;28;20025;-86
2022/11/27 01:49:10;;;;;;;0.20;0.20;;;4.60;99.90;;;;;;5023395;28;20092;-85
2022/11/27 01:51:57;;;;;;;0.20;0.20;;;4.50;99.90;;;;;;5033282;28;20146;-84
2022/11/27 01:54:25;;;;;;;;;;;4.30;99.90;;;;;;5031127;28;21476;-81
2022/11/27 01:56:55;;;;;;;0.45;0.45;;;4.40;99.90;;;;;;5045536;28;20467;-82
2022/11/27 01:59:21;;;;;;;0.10;0.10;;;4.50;99.90;;;;;;5037394;28;20033;-82
2022/11/27 02:01:47;;;;;;;0.20;0.20;;;4.50;99.90;;;;;;5048081;28;20503;-81
2022/11/27 02:04:13;;;;;;;0.40;0.40;;;4.50;99.90;;;;;;5043640;28;20345;-81
2022/11/27 02:06:39;;;;;;;0.30;0.30;;;4.60;99.90;;;;;;5044532;28;20471;-82
2022/11/27 02:09:05;;;;;;;0.10;0.10;;;4.50;99.90;;;;;;5029793;28;20033;-81
2022/11/27 02:11:35;;;;;;;0.20;0.20;;;4.50;99.90;;;;;;5047779;28;20036;-81
2022/11/27 02:14:33;;;;;;;0.10;0.10;;;4.30;99.90;;;;;;5030318;28;20032;-81
2022/11/27 02:17:21;;;;;;;0.30;0.30;;;4.30;99.90;;;;;;5029091;28;20474;-81
2022/11/27 02:20:11;;;;;;;0.25;0.25;;;4.50;99.90;;;;;;5037309;28;20040;-80
2022/11/27 02:22:36;;;;;;;0.10;0.10;;;4.50;99.90;;;;;;5041704;28;20064;-81
2022/11/27 02:25:26;;;;;;;0.10;0.10;;;4.30;99.90;;;;;;5048481;28;20052;-80
2022/11/27 02:28:21;;;;;;;1.10;0.57;;;4.20;99.90;;;;;;5059274;28;20044;-82
2022/11/27 02:30:55;;;;;;;0.10;0.10;;;4.20;99.90;;;;;;5006290;28;20041;-82
2022/11/27 02:33:22;;;;;;;0.10;0.10;;;4.20;99.90;;;;;;5061990;28;20033;-85
2022/11/27 02:36:02;;;;;;;0.20;0.20;;;4.10;99.90;;;;;;5048295;28;20021;-85
2022/11/27 02:38:44;;;;;;;0.20;0.20;;;4.00;99.90;;;;;;5029539;28;20143;-83
2022/11/27 02:41:23;;;;;;;0.20;0.20;;;4.10;99.90;;;;;;5047261;28;20523;-81
2022/11/27 02:43:51;;;;;;;0.10;0.10;;;4.10;99.90;;;;;;5030633;28;20024;-81
2022/11/27 02:46:18;;;;;;;0.20;0.20;;;4.10;99.90;;;;;;5047496;28;20025;-83
2022/11/27 02:48:53;;;;;;;0.20;0.20;;;4.00;99.90;;;;;;5056448;28;20029;-82
2022/11/27 02:51:25;;;;;;;0.10;0.10;;;4.00;99.90;;;;;;5046630;28;20060;-81
2022/11/27 02:53:55;;;;;;;0.10;0.10;;;4.00;99.90;;;;;;5029580;28;20029;-83
2022/11/27 02:56:24;;;;;;;0.38;0.38;;;4.00;99.90;;;;;;5048489;28;20049;-84
2022/11/27 02:58:54;;;;;;;0.50;0.50;;;4.10;99.90;;;;;;5047958;28;20513;-83
2022/11/27 03:01:22;;;;;;;0.40;0.40;;;4.10;99.90;;;;;;5048634;28;20139;-83
2022/11/27 03:03:52;;;;;;;0.20;0.20;;;4.20;99.90;;;;;;5026753;28;20033;-83
2022/11/27 03:06:27;;;;;;;0.20;0.20;;;4.30;99.90;;;;;;5029166;28;20024;-82
2022/11/27 03:08:59;;;;;;;0.30;0.30;;;4.40;99.90;;;;;;5053408;28;20033;-81
2022/11/27 03:11:26;;;;;;;0.20;0.20;;;4.30;99.90;;;;;;5028893;28;20864;-82
2022/11/27 03:13:58;;;;;;;0.20;0.20;;;4.20;99.90;;;;;;5023655;28;20114;-81
2022/11/27 03:16:49;;;;;;;0.20;0.20;;;4.10;99.90;;;;;;5047336;28;20028;-83
2022/11/27 03:19:27;;;;;;;0.10;0.10;;;4.00;99.90;;;;;;5031000;28;20029;-81
2022/11/27 03:22:00;;;;;;;0.10;0.10;;;4.00;99.90;;;;;;5054663;28;20052;-81
2022/11/27 03:24:27;;;;;;;0.10;0.10;;;4.00;99.90;;;;;;5028340;28;20045;-82
2022/11/27 03:26:57;;;;;;;0.10;0.10;;;4.10;99.90;;;;;;5028526;28;20381;-82
2022/11/27 03:29:25;;;;;;;0.47;0.35;;;4.10;99.90;;;;;;5026699;28;20033;-84
2022/11/27 03:31:51;;;;;;;0.25;0.25;;;4.10;99.90;;;;;;5052178;28;20593;-83
2022/11/27 03:34:16;;;;;;;0.95;0.95;;;4.00;99.90;;;;;;5056301;28;20029;-83
2022/11/27 03:36:43;;;;;;;0.10;0.10;;;4.00;99.90;;;;;;5025937;28;20025;-85
2022/11/27 03:39:09;;;;;;;0.20;0.20;;;4.00;99.90;;;;;;5028664;28;20115;-83
2022/11/27 03:42:08;;;;;;;0.10;0.10;;;4.10;99.90;;;;;;5027440;28;20069;-82
2022/11/27 03:45:02;;;;;;;0.70;0.70;;;4.10;99.90;;;;;;5028262;28;20041;-84
2022/11/27 03:47:49;;;;;;;0.10;0.10;;;4.10;99.90;;;;;;5044137;28;20028;-84
2022/11/27 03:50:21;;;;;;;0.45;0.45;;;3.90;99.90;;;;;;5045673;28;20921;-84
2022/11/27 03:53:04;;;;;;;0.25;0.25;;;3.90;99.90;;;;;;5050118;28;20903;-81
2022/11/27 03:55:54;;;;;;;0.10;0.10;;;3.90;99.90;;;;;;5027663;28;20045;-82
2022/11/27 03:58:33;;;;;;;0.20;0.20;;;4.00;99.90;;;;;;5049466;28;20028;-83
2022/11/27 04:01:01;;;;;;;0.10;0.10;;;4.00;99.90;;;;;;5049815;28;20068;-83
2022/11/27 04:03:28;;;;;;;0.32;0.32;;;4.00;99.90;;;;;;5049902;28;20025;-82
2022/11/27 04:05:54;;;;;;;;;;;3.80;99.90;;;;;;5050534;28;20025;-83
2022/11/27 04:08:20;;;;;;;0.20;0.20;;;3.90;99.90;;;;;;5031727;28;20772;-84
2022/11/27 04:10:46;;;;;;;0.25;0.25;;;3.90;99.90;;;;;;5049318;28;20044;-83
2022/11/27 04:13:13;;;;;;;0.10;0.10;;;3.80;99.90;;;;;;5032637;28;20049;-84
2022/11/27 04:15:38;;;;;;;0.10;0.10;;;3.80;99.90;;;;;;5050224;28;20479;-83
2022/11/27 04:18:04;;;;;;;0.10;0.10;;;3.80;99.90;;;;;;5031812;28;20122;-82
2022/11/27 04:20:30;;;;;;;0.10;0.10;;;3.60;99.90;;;;;;5061560;28;20025;-84
2022/11/27 04:22:56;;;;;;;0.10;0.10;;;3.60;99.90;;;;;;5029869;28;20102;-84
2022/11/27 04:25:22;;;;;;;0.10;0.10;;;3.50;99.90;;;;;;5050082;28;20115;-84
2022/11/27 04:27:49;;;;;;;0.43;0.43;;;3.60;99.90;;;;;;5049313;28;20052;-84
2022/11/27 04:30:15;;;;;;;0.30;0.30;;;3.50;99.90;;;;;;5031559;28;20113;-84
2022/11/27 04:32:40;;;;;;;0.00;0.00;;;3.60;99.90;;;;;;5035580;28;20423;-84
2022/11/27 04:35:07;;;;;;;0.10;0.10;;;3.50;99.90;;;;;;5056345;28;20033;-84
2022/11/27 04:37:32;;;;;;;0.28;0.28;;;3.50;99.90;;;;;;5031263;28;20025;-82
2022/11/27 04:39:58;;;;;;;0.55;0.55;;;3.50;99.90;;;;;;5049574;28;20036;-84
2022/11/27 04:42:24;;;;;;;0.40;0.40;;;3.50;99.90;;;;;;5050022;28;20032;-82
2022/11/27 04:44:49;;;;;;;0.20;0.20;;;3.60;99.90;;;;;;5049614;28;20591;-83
2022/11/27 04:47:15;;;;;;;0.75;0.75;;;3.70;99.90;;;;;;5049086;28;20140;-83
2022/11/27 04:49:41;;;;;;;0.47;0.47;;;3.80;99.90;;;;;;5059999;28;20083;-83
2022/11/27 04:52:06;;;;;;;0.10;0.10;;;3.90;99.90;;;;;;5056825;28;20840;-81
2022/11/27 04:54:32;;;;;;;0.20;0.20;;;3.90;99.90;;;;;;5048142;28;20052;-83
2022/11/27 04:56:58;;;;;;;0.43;0.43;;;3.70;99.90;;;;;;5049568;28;20405;-83
2022/11/27 04:59:23;;;;;;;0.13;0.13;;;3.70;99.90;;;;;;5031030;28;20036;-80
2022/11/27 05:01:49;;;;;;;0.20;0.20;;;3.70;99.90;;;;;;5049575;28;20067;-81
2022/11/27 05:04:15;;;;;;;0.10;0.10;;;3.80;99.90;;;;;;5048667;28;20449;-82
2022/11/27 05:06:41;;;;;;;0.10;0.10;;;3.80;99.90;;;;;;5048388;28;20061;-84
2022/11/27 05:09:06;;;;;;;0.13;0.13;;;3.70;99.90;;;;;;5054584;28;20040;-83
2022/11/27 05:11:33;;;;;;;0.57;0.57;;;3.50;99.90;;;;;;5031324;28;20071;-83
2022/11/27 05:14:14;;;;;;;0.10;0.10;;;3.30;99.90;;;;;;5049112;28;20033;-84
2022/11/27 05:16:51;;;;;;;0.10;0.10;;;3.40;99.90;;;;;;5049692;28;20032;-85
2022/11/27 05:19:18;;;;;;;0.10;0.10;;;3.50;99.90;;;;;;5047930;28;20017;-84
2022/11/27 05:21:45;;;;;;;0.10;0.10;;;3.40;99.90;;;;;;5049241;28;20033;-83
2022/11/27 05:24:13;;;;;;;0.55;0.55;;;3.40;99.90;;;;;;5030580;28;20503;-84
2022/11/27 05:26:39;;;;;;;0.10;0.10;;;3.30;99.90;;;;;;5049164;28;20079;-82
2022/11/27 05:29:06;;;;;;;0.10;0.10;;;3.40;99.90;;;;;;5028889;28;20033;-87
2022/11/27 05:31:32;;;;;;;0.20;0.20;;;3.30;99.90;;;;;;5065388;28;20037;-89
2022/11/27 05:33:58;;;;;;;0.10;0.10;;;3.30;99.90;;;;;;5049993;28;20027;-86
2022/11/27 05:36:24;;;;;;;0.10;0.10;;;3.40;99.90;;;;;;5031729;28;20033;-83
2022/11/27 05:38:50;;;;;;;0.10;0.10;;;3.50;99.90;;;;;;5030464;28;20021;-84
2022/11/27 05:41:15;;;;;;;0.28;0.28;;;3.30;99.90;;;;;;5048476;28;20495;-82
2022/11/27 05:43:41;;;;;;;0.38;0.38;;;3.30;99.90;;;;;;5051441;28;20582;-83
2022/11/27 05:46:08;;;;;;;1.13;0.40;;;3.30;99.90;;;;;;5048229;28;20035;-82
2022/11/27 05:48:35;;;;;;;0.20;0.20;;;3.20;99.90;;;;;;5030112;28;20114;-84
2022/11/27 05:51:01;;;;;;;0.10;0.10;;;3.20;99.90;;;;;;5030085;28;20032;-85
2022/11/27 05:53:27;;;;;;;0.10;0.10;;;3.20;99.90;;;;;;5030923;28;20831;-84
2022/11/27 05:55:52;;;;;;;0.10;0.10;;;3.30;99.90;;;;;;5031620;28;20041;-85
2022/11/27 05:58:18;;;;;;;0.20;0.20;;;3.10;99.90;;;;;;5031613;28;20068;-86
2022/11/27 06:00:44;;;;;;;0.30;0.30;;;2.90;99.90;;;;;;5048851;28;20033;-83
2022/11/27 06:03:10;;;;;;;0.30;0.30;;;2.80;99.90;;;;;;5060499;28;20170;-84
2022/11/27 06:05:40;;;;;;;0.52;0.40;;;2.80;99.90;;;;;;5048586;28;20404;-84
2022/11/27 06:08:06;;;;;;;0.20;0.20;;;3.00;99.90;;;;;;5048119;28;20627;-83
2022/11/27 06:10:32;;;;;;;0.10;0.10;;;3.10;99.90;;;;;;5030637;28;20696;-83
2022/11/27 06:12:58;;;;;;;0.20;0.20;;;3.10;99.90;;;;;;5030180;28;20036;-82
2022/11/27 06:15:24;;;;;;;0.20;0.20;;;3.10;99.90;;;;;;5030193;28;20048;-83
2022/11/27 06:17:50;;;;;;;0.20;0.20;;;3.10;99.90;;;;;;5048649;28;20025;-84
2022/11/27 06:20:16;;;;;;;0.10;0.10;;;3.20;99.90;;;;;;5039879;28;20033;-83
2022/11/27 06:22:41;;;;;;;0.57;0.57;;;3.10;99.90;;;;;;5048114;28;20021;-83
2022/11/27 06:25:08;;;;;;;0.52;0.52;;;3.10;99.90;;;;;;5048200;28;20067;-84
2022/11/27 06:27:34;;;;;;;2.10;1.08;;;3.20;99.90;;;;;;5059275;28;20051;-85
2022/11/27 06:30:00;;;;;;;0.30;0.30;;;3.20;99.90;;;;;;5029805;28;20068;-83
2022/11/27 06:32:26;;;;;;;0.10;0.10;;;3.30;99.90;;;;;;5029506;28;20029;-79
2022/11/27 06:34:52;;;;;;;0.10;0.10;;;3.20;99.90;;;;;;5047109;28;20405;-83
2022/11/27 06:37:18;;;;;;;0.20;0.20;;;3.10;99.90;;;;;;5059964;28;20711;-81
2022/11/27 06:39:43;;;;;;;0.30;0.30;;;3.10;99.90;;;;;;5049027;28;20028;-79
2022/11/27 06:42:09;;;;;;;0.20;0.20;;;3.00;99.90;;;;;;5029152;28;20033;-78
2022/11/27 06:44:35;;;;;;;3.30;1.85;;;3.00;99.90;;;;;;5047670;28;20090;-81
2022/11/27 06:47:01;;;;;;;0.10;0.10;;;3.00;99.90;;;;;;5029054;28;20033;-80
2022/11/27 06:49:26;;;;;;;0.10;0.10;;;3.00;99.90;;;;;;5045615;28;20029;-81
2022/11/27 06:51:52;;;;;;;0.10;0.10;;;2.90;99.90;;;;;;5047261;28;20037;-81
2022/11/27 06:54:18;;;;;;;0.10;0.10;;;3.00;99.90;;;;;;5030582;28;20048;-82
2022/11/27 06:56:43;;;;;;;0.30;0.30;;;2.90;99.90;;;;;;5047844;28;20037;-82
2022/11/27 06:59:13;;;;;;;0.30;0.30;;;3.10;99.90;;;;;;5045758;28;20040;-81
2022/11/27 07:01:40;;;;;;;0.30;0.30;;;3.10;99.90;;;;;;5047554;28;20029;-83
2022/11/27 07:04:05;;;;;;;0.10;0.10;;;3.00;99.90;;;;;;5046301;28;20044;-85
2022/11/27 07:06:31;;;;;;;0.17;0.17;;;3.00;99.90;;;;;;5047127;28;20025;-82
2022/11/27 07:08:57;;;;;;;0.10;0.10;;;3.10;99.90;;;;;;5047646;28;20108;-79
2022/11/27 07:11:25;;;;;;;0.10;0.10;;;3.10;99.90;;;;;;5028685;28;20056;-81
2022/11/27 07:13:54;;;;;;;0.10;0.10;;;3.10;99.90;;;;;;5047470;28;20512;-82
2022/11/27 07:16:20;;;;;;;0.30;0.30;;;3.20;99.90;;;;;;5028409;28;20025;-88
2022/11/27 07:18:48;;;;;;;0.10;0.10;;;3.20;99.90;;;;;;5049425;28;20044;-84
2022/11/27 07:21:15;;;;;;;0.10;0.10;;;3.20;99.90;;;;;;5029667;28;20794;-84
2022/11/27 07:23:41;;;;;;;0.10;0.10;;;3.20;99.90;;;;;;5047459;28;20032;-83
2022/11/27 07:26:15;;;;;;;0.25;0.25;;;3.20;99.90;;;;;;5048755;28;20389;-84
2022/11/27 07:28:45;;;;;;;0.10;0.10;;;3.40;99.90;;;;;;5033766;28;20060;-84
2022/11/27 07:31:19;;;;;;;0.32;0.32;;;3.50;99.90;;;;;;5051477;28;20033;-80
2022/11/27 07:33:45;;;;;;;0.10;0.10;;;3.60;99.90;;;;;;5049656;28;20033;-86
2022/11/27 07:36:17;;;;;;;0.73;0.73;;;3.60;99.90;;;;;;5033167;28;20025;-85
2022/11/27 07:38:43;;;;;;;0.10;0.10;;;3.80;99.90;;;;;;5051422;28;20029;-81
2022/11/27 07:41:09;;;;;;;0.38;0.38;;;4.10;99.90;;;;;;5033059;28;20025;-81
2022/11/27 07:43:35;;;;;;;0.10;0.10;;;4.60;99.90;;;;;;5045261;28;20580;-82
2022/11/27 07:46:19;;;;;;;0.20;0.20;;;5.20;99.90;;;;;;5033587;28;20029;-81
2022/11/27 07:48:45;;;;;;;0.10;0.10;;;5.60;99.90;;;;;;5050953;28;20085;-81
2022/11/27 07:51:12;;;;;;;0.17;0.17;;;5.90;99.90;;;;;;5050288;28;20441;-81
2022/11/27 07:53:39;;;;;;;0.30;0.30;;;6.20;99.90;;;;;;5051479;28;20024;-84
2022/11/27 07:56:12;;;;;;;0.35;0.35;;;6.30;99.90;;;;;;5050109;28;20066;-82
2022/11/27 07:58:38;;;;;;;0.10;0.10;;;6.50;99.90;;;;;;5051274;28;20454;-82
2022/11/27 08:01:12;;;;;;;0.20;0.20;;;6.70;99.90;;;;;;5050762;28;20116;-83
2022/11/27 08:03:38;;;;;;;0.10;0.10;;;6.60;99.90;;;;;;5032658;28;20033;-85
2022/11/27 08:06:04;;;;;;;0.30;0.30;;;6.40;99.90;;;;;;5050758;28;20114;-85
2022/11/27 08:08:31;;;;;;;2.83;1.08;;;6.00;99.90;;;;;;5050634;28;20037;-85
2022/11/27 08:10:56;;;;;;;0.10;0.10;;;6.00;99.90;;;;;;5049206;28;20040;-83
2022/11/27 08:13:22;;;;;;;0.22;0.22;;;5.80;99.90;;;;;;5027092;28;20424;-84
2022/11/27 08:15:48;;;;;;;0.10;0.10;;;5.60;99.90;;;;;;5018542;28;20033;-84
2022/11/27 08:18:13;;;;;;;0.22;0.22;;;5.50;99.90;;;;;;5028249;28;20317;-85
2022/11/27 08:20:39;;;;;;;0.28;0.28;;;5.60;99.90;;;;;;5044903;28;20029;-85
2022/11/27 08:23:05;;;;;;;0.10;0.10;;;5.70;99.90;;;;;;5020523;28;20049;-82
2022/11/27 08:25:31;;;;;;;0.30;0.30;;;5.80;99.90;;;;;;5024115;28;20072;-81
2022/11/27 08:27:56;;;;;;;0.20;0.20;;;5.80;99.90;;;;;;5026647;28;20036;-83
2022/11/27 08:30:22;;;;;;;0.35;0.35;;;5.90;99.90;;;;;;5025630;28;20033;-81
2022/11/27 08:32:49;;;;;;;0.10;0.10;;;6.10;99.90;;;;;;5043718;28;20032;-81
2022/11/27 08:35:14;;;;;;;0.13;0.13;;;6.30;99.90;;;;;;5039926;28;20036;-86
2022/11/27 08:37:40;;;;;;;0.10;0.10;;;6.40;99.90;;;;;;5025479;28;20030;-87
2022/11/27 08:40:07;;;;;;;0.32;0.32;;;6.60;99.90;;;;;;5032170;28;20097;-86
2022/11/27 08:42:32;;;;;;;0.10;0.10;;;6.40;99.90;;;;;;5037388;28;20041;-85
2022/11/27 08:44:58;;;;;;;0.10;0.10;;;6.20;99.90;;;;;;5027071;28;20115;-86
2022/11/27 08:47:23;;;;;;;0.10;0.10;;;6.20;99.90;;;;;;5047157;28;20355;-87
2022/11/27 08:49:49;;;;;;;0.10;0.10;;;6.30;99.90;;;;;;5036816;28;20026;-86
2022/11/27 08:52:15;;;;;;;0.10;0.10;;;6.30;99.90;;;;;;5038724;28;20036;-85
2022/11/27 08:54:40;;;;;;;0.15;0.15;;;6.30;99.90;;;;;;5041305;28;20587;-88
2022/11/27 08:57:06;;;;;;;0.20;0.20;;;6.30;99.90;;;;;;5032386;28;20029;-84
2022/11/27 08:59:32;;;;;;;0.10;0.10;;;6.30;99.90;;;;;;5029571;28;20049;-84
2022/11/27 09:01:57;;;;;;;0.10;0.10;;;6.40;99.90;;;;;;5060657;28;20036;-85
2022/11/27 09:04:23;;;;;;;0.10;0.10;;;6.70;99.90;;;;;;5050954;28;20025;-89
2022/11/27 09:06:49;;;;;;;0.22;0.22;;;7.30;99.90;;;;;;5028200;28;20037;-87
2022/11/27 09:09:15;;;;;;;0.20;0.20;;;7.30;99.90;;;;;;5019374;28;20037;-87
2022/11/27 09:11:41;;;;;;;0.20;0.20;;;7.40;99.90;;;;;;5061319;28;20075;-86
2022/11/27 09:14:07;;;;;;;0.10;0.10;;;7.70;99.90;;;;;;5023259;28;20053;-87
2022/11/27 09:16:34;;;;;;;0.10;0.10;;;7.90;99.90;;;;;;5019843;28;20029;-86
2022/11/27 09:19:00;;;;;;;0.13;0.13;;;7.80;99.90;;;;;;5030904;28;20033;-87
2022/11/27 09:21:31;;;;;;;1.08;0.73;;;7.60;99.90;;;;;;5025979;28;20498;-88
2022/11/27 09:23:58;;;;;;;0.25;0.25;;;7.70;99.90;;;;;;5028633;28;20021;-87
2022/11/27 09:26:26;;;;;;;0.20;0.20;;;7.80;99.90;;;;;;5029344;28;20626;-87
2022/11/27 09:28:53;;;;;;;0.30;0.30;;;7.90;99.90;;;;;;5028591;28;20079;-86
2022/11/27 09:31:20;;;;;;;0.17;0.17;;;8.10;99.90;;;;;;5021172;28;20033;-88
2022/11/27 09:33:46;;;;;;;0.10;0.10;;;8.30;99.90;;;;;;5029498;28;20041;-87
2022/11/27 09:36:23;;;;;;;0.10;0.10;;;8.50;99.90;;;;;;5017048;28;20033;-88
2022/11/27 09:38:49;;;;;;;0.60;0.60;;;8.30;99.90;;;;;;5030331;28;20029;-84
2022/11/27 09:41:50;;;;;;;0.10;0.10;;;8.10;99.90;;;;;;5029764;28;20448;-82
2022/11/27 09:44:47;;;;;;;0.10;0.10;;;8.00;99.90;;;;;;5027624;28;20032;-83
2022/11/27 09:47:35;;;;;;;0.10;0.10;;;7.80;99.90;;;;;;5039877;28;20033;-84
2022/11/27 09:50:09;;;;;;;0.35;0.30;;;7.90;99.90;;;;;;5031481;28;20013;-86
2022/11/27 09:52:39;;;;;;;2.17;0.65;;;8.20;99.90;;;;;;5033258;28;20093;-86
2022/11/27 09:55:32;;;;;;;1.17;0.40;;;8.20;99.90;;;;;;5013326;28;20034;-86
2022/11/27 09:58:02;;;;;;;0.10;0.10;;;8.40;99.90;;;;;;5035470;28;20122;-86
2022/11/27 10:00:27;;;;;;;0.25;0.25;;;8.40;99.90;;;;;;5047615;28;20017;-85
2022/11/27 10:02:53;;;;;;;0.17;0.17;;;8.40;99.90;;;;;;5043429;28;20526;-86
2022/11/27 10:05:25;;;;;;;0.10;0.10;;;8.50;99.90;;;;;;5020893;28;20025;-88
2022/11/27 10:08:10;;;;;;;0.35;0.35;;;8.50;99.90;;;;;;5027344;28;20049;-86
2022/11/27 10:11:05;;;;;;;0.10;0.10;;;8.50;99.90;;;;;;5053955;28;20029;-85
2022/11/27 10:13:39;;;;;;;0.40;0.25;;;8.70;99.90;;;;;;5047283;28;20769;-89
2022/11/27 10:16:20;;;;;;;0.10;0.10;;;8.70;99.90;;;;;;5051837;28;20028;-86
2022/11/27 10:19:16;;;;;;;0.30;0.30;;;8.80;99.90;;;;;;5016081;28;20033;-85
2022/11/27 10:22:09;;;;;;;0.10;0.10;;;8.90;99.90;;;;;;5041240;28;20166;-86
2022/11/27 10:24:53;;;;;;;0.10;0.10;;;9.00;99.90;;;;;;5035200;28;20850;-83
2022/11/27 10:27:27;;;;;;;0.17;0.17;;;9.10;99.90;;;;;;5044127;28;20209;-90
2022/11/27 10:29:54;;;;;;;0.10;0.10;;;9.20;99.90;;;;;;5027123;28;20419;-88
2022/11/27 10:32:24;;;;;;;0.20;0.20;;;9.40;99.90;;;;;;5039254;28;20032;-82
2022/11/27 10:35:11;;;;;;;0.10;0.10;;;9.40;99.90;;;;;;5025211;28;20039;-84
2022/11/27 10:37:55;;;;;;;0.20;0.20;;;9.50;99.90;;;;;;5036721;28;20052;-82
2022/11/27 10:40:25;;;;;;;0.38;0.38;;;9.60;99.90;;;;;;5051838;28;20033;-82
2022/11/27 10:43:06;;;;;;;0.10;0.10;;;9.60;99.90;;;;;;5041438;28;20112;-83
2022/11/27 10:45:53;;;;;;;0.10;0.10;;;9.70;99.90;;;;;;5015238;28;20079;-86
2022/11/27 10:48:19;;;;;;;0.10;0.10;;;9.70;99.90;;;;;;5044308;28;20101;-85
2022/11/27 10:50:46;;;;;;;0.10;0.10;;;9.50;99.90;;;;;;5029646;28;20029;-85
2022/11/27 10:53:34;;;;;;;0.20;0.20;;;9.40;99.90;;;;;;5027300;28;20167;-87
2022/11/27 10:56:15;;;;;;;0.17;0.17;;;9.30;99.90;;;;;;5020398;28;20045;-88
2022/11/27 10:58:58;;;;;;;0.10;0.10;;;9.40;99.90;;;;;;5027534;28;20109;-85
2022/11/27 11:01:27;;;;;;;0.35;0.30;;;9.50;99.90;;;;;;5011162;28;20069;-88
2022/11/27 11:04:07;;;;;;;0.20;0.20;;;9.60;99.90;;;;;;5024887;28;20413;-90
2022/11/27 11:06:38;;;;;;;0.10;0.10;;;9.60;99.90;;;;;;5016699;28;20036;-89
2022/11/27 11:09:12;;;;;;;0.20;0.20;;;9.70;99.90;;;;;;5019119;28;20030;-90
2022/11/27 11:11:37;;;;;;;0.20;0.20;;;9.90;99.90;;;;;;5035810;28;20030;-88
2022/11/27 11:14:13;;;;;;;1.90;0.20;;;10.00;99.90;;;;;;5030019;28;20024;-91
2022/11/27 11:16:42;;;;;;;0.10;0.10;;;10.10;99.90;;;;;;5028323;28;20034;-92
2022/11/27 11:19:31;;;;;;;0.10;0.10;;;10.20;99.90;;;;;;5038112;28;20022;-89
2022/11/27 11:21:59;;;;;;;0.43;0.43;;;10.20;99.90;;;;;;5028414;28;20433;-87
2022/11/27 11:24:32;;;;;;;0.10;0.10;;;10.20;99.90;;;;;;5031642;28;20048;-91
2022/11/27 11:26:58;;;;;;;0.28;0.28;;;10.30;99.90;;;;;;5023537;28;20589;-86
2022/11/27 11:29:27;;;;;;;0.20;0.20;;;10.30;99.90;;;;;;5018723;28;20037;-86
2022/11/27 11:31:55;;;;;;;0.20;0.20;;;10.20;99.90;;;;;;5058004;28;20022;-90
2022/11/27 11:34:29;;;;;;;0.25;0.25;;;10.20;99.90;;;;;;5031486;28;20040;-90
2022/11/27 11:36:59;;;;;;;0.10;0.10;;;10.20;99.90;;;;;;5034898;28;20743;-91
2022/11/27 11:39:29;;;;;;;0.20;0.20;;;10.20;99.90;;;;;;5017081;28;20030;-91
2022/11/27 11:41:56;;;;;;;0.43;0.40;;;10.20;99.90;;;;;;5024405;28;20099;-86
2022/11/27 11:44:28;;;;;;;0.10;0.10;;;10.10;99.90;;;;;;5024514;28;20109;-86
2022/11/27 11:46:54;;;;;;;0.10;0.10;;;10.10;99.90;;;;;;5027024;28;20037;-88
2022/11/27 11:49:26;;;;;;;0.20;0.20;;;10.10;99.90;;;;;;5027310;28;20068;-87
2022/11/27 11:52:24;;;;;;;0.38;0.35;;;10.10;99.90;;;;;;5024844;28;20048;-86
2022/11/27 11:55:18;;;;;;;0.10;0.10;;;10.10;99.90;;;;;;5011534;28;20932;-86
2022/11/27 11:58:09;;;;;;;0.10;0.10;;;10.20;99.90;;;;;;5045133;28;20042;-83
2022/11/27 12:01:15;;;;;;;0.10;0.10;;;10.30;99.90;;;;;;5041929;28;20037;-91
2022/11/27 12:03:56;;;;;;;0.40;0.40;;;10.40;99.90;;;;;;5002204;28;20064;-89
2022/11/27 12:06:39;;;;;;;0.08;0.08;;;10.50;99.90;;;;;;5027365;28;20051;-93
2022/11/27 12:09:26;;;;;;;0.20;0.20;;;10.50;99.90;;;;;;5026501;28;20039;-93
2022/11/27 12:12:10;;;;;;;;;;;10.60;99.90;;;;;;5047268;28;20439;-95
2022/11/27 12:14:52;;;;;;;0.10;0.10;;;10.70;99.90;;;;;;5052907;28;19923;-89
2022/11/27 12:17:39;;;;;;;0.20;0.20;;;10.90;99.90;;;;;;5033686;28;20093;-93
2022/11/27 12:20:14;;;;;;;0.20;0.20;;;10.90;99.90;;;;;;5036513;28;20032;-89
2022/11/27 12:22:45;;;;;;;0.10;0.10;;;11.20;99.90;;;;;;5032921;28;20029;-91
2022/11/27 12:25:45;;;;;;;0.10;0.10;;;11.10;99.90;;;;;;5065554;28;20036;-90
2022/11/27 12:28:28;;;;;;;1.00;0.45;;;11.20;99.90;;;;;;5036119;28;20044;-84
2022/11/27 12:31:15;;;;;;;0.10;0.10;;;11.00;99.90;;;;;;5030217;28;20799;-89
2022/11/27 12:34:05;;;;;;;0.10;0.10;;;10.90;99.90;;;;;;5067037;28;20051;-90
2022/11/27 12:36:50;;;;;;;0.55;0.40;;;10.80;99.90;;;;;;5034991;28;20025;-87
2022/11/27 12:39:43;;;;;;;0.20;0.20;;;10.80;99.90;;;;;;5066814;28;20033;-93
2022/11/27 12:42:19;;;;;;;0.10;0.10;;;10.80;99.90;;;;;;5055620;28;20102;-94
2022/11/27 12:45:10;;;;;;;0.10;0.10;;;10.70;99.90;;;;;;5046771;28;20056;-89
2022/11/27 12:47:43;;;;;;;0.10;0.10;;;10.90;99.90;;;;;;5053534;28;20025;-90
2022/11/27 12:50:18;;;;;;;0.10;0.10;;;10.90;99.90;;;;;;5033286;28;20033;-91
2022/11/27 12:52:53;;;;;;;0.10;0.10;;;11.00;99.90;;;;;;5038239;28;20837;-94
2022/11/27 12:55:25;;;;;;;0.47;0.47;;;10.80;99.90;;;;;;5068326;28;20041;-96
2022/11/27 12:57:58;;;;;;;0.13;0.13;;;10.90;99.90;;;;;;5014255;28;20625;-95
2022/11/27 13:00:28;;;;;;;0.10;0.10;;;11.10;99.90;;;;;;5047331;28;20017;-88
2022/11/27 13:03:14;;;;;;;0.20;0.20;;;11.00;99.90;;;;;;5031292;28;20086;-88
2022/11/27 13:05:43;;;;;;;;;;;11.00;99.90;;;;;;5021059;28;20136;-85
2022/11/27 13:08:20;;;;;;;0.10;0.10;;;11.20;99.40;;;;;;5040738;28;20015;-85
2022/11/27 13:10:51;;;;;;;0.43;0.43;;;11.10;97.40;;;;;;5043746;28;20033;-85
2022/11/27 13:13:34;;;;;;;0.10;0.10;;;11.10;96.60;;;;;;5019056;28;20040;-85
2022/11/27 13:16:17;;;;;;;0.22;0.22;;;11.10;96.80;;;;;;5044848;28;20100;-81
2022/11/27 13:19:04;;;;;;;0.30;0.30;;;11.20;95.30;;;;;;5020814;28;20063;-87